Latest Weather Observations for Port Hedland

IDW60801

Issued at 10:43 pm WST Friday 23 April 2021 (issued every 10 minutes, with the page automatically refreshed every 10 minutes)

About weather observations | Map of weather stations | Latest weather observations for WA | Other Formats
Station Details ID: 004032 Name: PORT HEDLAND AIRPORT Lat: -20.37 Lon: 118.63 Height: 6.4 m
Data from the previous 72 hours. | See also: Recent months at Port Hedland
Date/Time
WST
Temp
°C
App
Temp
°C
Dew
Point
°C
Rel
Hum
%
Delta-T
°C
Wind Press
QNH
hPa
Press
MSL
hPa
Rain since
9am
mm
Dir  Spd
km/h
Gust
km/h
Spd
kts
Gust
kts
23/10:30pm 21.7 19.9 12.0 54 5.4 S 13 15 7 8 1015.2 1015.1 0.0
23/10:00pm 21.3 20.3 12.4 57 5.0 SSE 9 15 5 8 1015.2 1015.1 0.0
23/09:30pm 22.8 21.8 13.3 55 5.5 S 11 13 6 7 1015.3 1015.2 0.0
23/09:00pm 23.5 22.7 13.9 55 5.6 S 11 15 6 8 1015.3 1015.2 0.0
23/08:30pm 23.8 23.4 14.2 55 5.7 SSW 9 11 5 6 1015.0 1014.9 0.0
23/08:00pm 23.8 23.9 15.6 60 4.9 SSW 9 11 5 6 1014.8 1014.7 0.0
23/07:30pm 24.2 25.3 16.7 63 4.6 SW 6 9 3 5 1014.4 1014.3 0.0
23/07:00pm 24.7 26.1 17.4 64 4.5 N 6 7 3 4 1014.0 1013.9 0.0
23/06:30pm 26.5 27.3 17.3 57 5.8 N 9 11 5 6 1013.7 1013.6 0.0
23/06:00pm 27.0 27.4 15.4 49 7.1 NNW 7 11 4 6 1013.4 1013.3 0.0
23/05:30pm 29.4 28.1 13.6 38 9.4 N 13 17 7 9 1012.9 1012.8 0.0
23/05:00pm 30.3 28.0 13.1 34 10.2 N 17 22 9 12 1012.7 1012.6 0.0
23/04:30pm 30.9 27.8 12.3 32 10.9 NNE 20 26 11 14 1012.5 1012.4 0.0
23/04:00pm 31.7 28.3 10.4 27 12.2 N 19 26 10 14 1012.3 1012.2 0.0
23/03:30pm 31.9 28.9 12.7 31 11.4 NNE 20 26 11 14 1012.3 1012.2 0.0
23/03:00pm 32.1 28.6 12.3 29 11.7 N 22 30 12 16 1012.3 1012.2 0.0
23/02:30pm 33.3 29.3 10.6 25 13.1 N 22 30 12 16 1012.5 1012.4 0.0
23/02:00pm 32.9 29.2 14.0 32 11.5 N 26 30 14 16 1012.7 1012.6 0.0
23/01:30pm 33.1 28.7 10.4 25 13.1 N 24 30 13 16 1013.0 1012.9 0.0
23/01:00pm 34.7 27.9 1.1 12 16.9 NNE 26 32 14 17 1013.3 1013.2 0.0
23/12:30pm 34.0 27.7 1.7 13 16.3 NNE 24 32 13 17 1013.8 1013.7 0.0
23/12:00pm 34.0 27.5 0.6 12 16.5 ENE 24 33 13 18 1014.3 1014.2 0.0
23/11:30am 33.8 26.7 1.6 13 16.2 ENE 28 35 15 19 1014.8 1014.7 0.0
23/11:00am 33.6 25.6 0.3 12 16.4 E 32 43 17 23 1015.1 1015.0 0.0
23/10:30am 33.0 24.3 -0.2 12 16.1 E 35 44 19 24 1015.5 1015.4 0.0
23/10:00am 32.0 22.9 -0.9 12 15.7 E 37 48 20 26 1015.8 1015.7 0.0
23/09:30am 30.5 21.1 0.0 14 14.6 ESE 39 52 21 28 1015.9 1015.8 0.0
23/09:00am 29.7 21.1 0.3 15 14.1 ESE 35 44 19 24 1015.8 1015.7 0.0
23/08:30am 28.1 19.8 -0.1 16 13.3 ESE 33 44 18 24 1015.5 1015.4 0.0
23/08:00am 27.0 20.1 -0.1 17 12.6 SE 26 41 14 22 1015.4 1015.3 0.0
23/07:59am 26.9 19.6 -0.2 17 12.6 SE 28 41 15 22 1015.4 1015.3 0.0
23/07:30am 23.4 19.0 2.8 26 9.9 SE 15 19 8 10 1015.4 1015.3 0.0
23/07:00am 18.6 14.6 2.9 35 7.3 SSE 13 15 7 8 1015.2 1015.1 0.0
23/06:30am 17.1 12.8 3.1 39 6.4 SSE 15 17 8 9 1014.9 1014.8 0.0
23/06:00am 17.3 13.3 2.9 38 6.6 SSE 13 17 7 9 1014.5 1014.4 0.0
23/05:30am 17.6 13.2 2.8 37 6.8 SSE 15 17 8 9 1014.1 1014.0 0.0
23/05:00am 18.0 13.2 2.7 36 7.0 SSE 17 20 9 11 1013.9 1013.8 0.0
23/04:30am 18.2 13.5 2.9 36 7.1 SSE 17 20 9 11 1013.7 1013.6 0.0
23/04:00am 17.6 13.7 3.5 39 6.6 SSE 13 17 7 9 1013.7 1013.6 0.0
23/03:30am 18.1 13.8 3.2 37 6.9 SSE 15 17 8 9 1013.8 1013.7 0.0
23/03:00am 19.0 14.8 3.6 36 7.2 SSE 15 17 8 9 1013.8 1013.7 0.0
23/02:30am 18.3 14.8 5.5 43 6.2 SSE 13 17 7 9 1013.9 1013.8 0.0
23/02:00am 19.5 16.0 5.6 40 6.8 SSE 13 15 7 8 1014.0 1013.9 0.0
23/01:30am 20.5 17.3 5.3 37 7.5 S 11 13 6 7 1014.2 1014.1 0.0
23/01:00am 20.8 18.0 7.1 41 7.0 SE 11 15 6 8 1014.4 1014.3 0.0
23/12:30am 20.0 18.5 11.8 59 4.5 SSE 11 15 6 8 1014.7 1014.6 0.0
23/12:00am 20.0 19.5 13.9 68 3.5 S 9 13 5 7 1015.1 1015.0 0.0
 
Date/Time
WST
Temp
°C
App
Temp
°C
Dew
Point
°C
Rel
Hum
%
Delta-T
°C
Wind Press
QNH
hPa
Press
MSL
hPa
Rain since
9am
mm
Dir  Spd
km/h
Gust
km/h
Spd
kts
Gust
kts
22/11:30pm 20.5 19.5 13.5 64 4.0 S 11 15 6 8 1015.0 1014.9 0.0
22/11:00pm 21.1 20.5 13.5 62 4.4 S 9 13 5 7 1015.2 1015.1 0.0
22/10:30pm 21.7 20.9 13.9 61 4.5 S 11 15 6 8 1015.4 1015.3 0.0
22/10:00pm 22.0 20.8 13.9 60 4.7 SSW 13 15 7 8 1015.6 1015.5 0.0
22/09:30pm 22.1 21.6 13.7 59 4.9 SSW 9 11 5 6 1015.5 1015.4 0.0
22/09:00pm 23.0 22.9 14.0 57 5.3 S 7 9 4 5 1015.5 1015.4 0.0
22/08:30pm 23.7 23.9 14.7 57 5.3 SW 7 11 4 6 1015.3 1015.2 0.0
22/08:00pm 24.3 24.7 14.7 55 5.7 WNW 6 7 3 4 1014.9 1014.8 0.0
22/07:30pm 25.0 25.4 15.3 55 5.8 WNW 7 9 4 5 1014.4 1014.3 0.0
22/07:00pm 24.8 25.1 14.9 54 5.9 WNW 7 9 4 5 1014.1 1014.0 0.0
22/06:30pm 25.5 25.8 14.9 52 6.4 NNW 7 9 4 5 1013.6 1013.5 0.0
22/06:00pm 27.0 26.6 15.1 48 7.2 NNW 11 13 6 7 1013.4 1013.3 0.0
22/05:30pm 29.0 27.3 13.6 38 9.2 N 15 20 8 11 1013.0 1012.9 0.0
22/05:00pm 30.1 27.8 13.0 35 10.1 N 17 24 9 13 1012.8 1012.7 0.0
22/04:30pm 30.9 28.3 13.2 34 10.6 N 19 26 10 14 1012.5 1012.4 0.0
22/04:00pm 31.4 28.1 11.7 29 11.5 N 20 26 11 14 1012.1 1012.0 0.0
22/03:30pm 34.6 28.3 -4.4 8 17.9 ESE 20 30 11 16 1011.8 1011.7 0.0
22/03:00pm 34.9 27.8 -4.2 8 18.0 SE 24 37 13 20 1012.2 1012.1 0.0
22/02:30pm 34.8 27.3 -4.3 8 18.0 SE 26 41 14 22 1012.3 1012.2 0.0
22/02:00pm 34.6 26.7 -4.4 8 17.9 E 28 43 15 23 1012.7 1012.6 0.0
22/01:30pm 34.4 27.8 -3.0 9 17.5 ESE 22 32 12 17 1013.2 1013.1 0.0
22/01:00pm 34.8 27.5 -2.7 9 17.7 SE 26 41 14 22 1013.6 1013.5 0.0
22/12:30pm 33.9 27.1 -2.0 10 17.0 ESE 24 39 13 21 1014.0 1013.9 0.0
22/12:01pm 33.8 26.0 -3.5 9 17.2 SE 28 46 15 25 1014.5 1014.4 0.0
22/12:00pm 34.0 26.4 -1.9 10 17.1 SE 28 41 15 22 1014.5 1014.4 0.0
22/11:30am 34.0 27.2 -1.9 10 17.1 ESE 24 41 13 22 1015.1 1015.0 0.0
22/11:00am 33.5 26.3 -2.3 10 16.8 ESE 26 39 14 21 1015.6 1015.5 0.0
22/10:30am 33.4 26.2 -2.3 10 16.8 ESE 26 33 14 18 1015.9 1015.8 0.0
22/10:00am 33.1 25.6 -1.3 11 16.4 E 28 33 15 18 1016.2 1016.1 0.0
22/09:30am 31.9 24.5 -1.0 12 15.6 E 28 39 15 21 1016.3 1016.2 0.0
22/09:00am 31.0 23.0 0.4 14 14.8 E 32 41 17 22 1016.5 1016.4 0.0
22/08:30am 29.8 22.7 1.3 16 13.9 E 28 39 15 21 1016.3 1016.2 0.0
22/08:00am 27.5 21.0 2.6 20 12.2 ESE 26 33 14 18 1016.2 1016.1 0.0
22/07:30am 24.6 20.5 4.4 27 10.1 ESE 15 22 8 12 1016.0 1015.9 0.0
22/07:00am 20.9 18.2 5.7 37 7.6 E 9 11 5 6 1015.8 1015.7 0.0
22/06:30am 20.4 16.9 5.6 38 7.3 E 13 20 7 11 1015.5 1015.4 0.0
22/06:00am 20.4 17.3 7.4 43 6.7 E 13 20 7 11 1015.4 1015.3 0.0
22/05:30am 19.4 16.0 9.0 51 5.5 SSE 17 20 9 11 1014.9 1014.8 0.0
22/05:00am 20.9 18.4 9.8 49 6.0 SSE 13 15 7 8 1014.7 1014.6 0.0
22/04:30am 19.4 18.4 12.2 63 4.0 SSE 9 13 5 7 1014.7 1014.6 0.0
22/04:00am 19.8 18.0 12.1 61 4.3 SSE 13 17 7 9 1014.6 1014.5 0.0
22/03:30am 20.4 18.4 12.6 61 4.4 SE 15 17 8 9 1014.6 1014.5 0.0
22/03:00am 19.7 18.2 14.1 70 3.2 SSE 15 17 8 9 1014.6 1014.5 0.0
22/02:30am 20.6 20.0 14.5 68 3.6 SSE 11 15 6 8 1014.7 1014.6 0.0
22/02:00am 21.0 20.0 14.6 67 3.7 SSE 13 17 7 9 1014.9 1014.8 0.0
22/01:30am 21.5 19.9 15.1 67 3.8 SSE 17 20 9 11 1015.1 1015.0 0.0
22/01:00am 21.5 20.4 15.3 68 3.7 S 15 19 8 10 1015.4 1015.3 0.0
22/12:30am 22.2 22.0 15.8 67 3.8 SSE 11 13 6 7 1015.4 1015.3 0.0
22/12:00am 21.5 21.3 15.8 70 3.4 SSE 11 15 6 8 1015.5 1015.4 0.0
 
Date/Time
WST
Temp
°C
App
Temp
°C
Dew
Point
°C
Rel
Hum
%
Delta-T
°C
Wind Press
QNH
hPa
Press
MSL
hPa
Rain since
9am
mm
Dir  Spd
km/h
Gust
km/h
Spd
kts
Gust
kts
21/11:30pm 21.3 21.7 16.3 73 3.0 SSE 9 13 5 7 1015.4 1015.3 0.0
21/11:00pm 21.7 21.8 16.6 73 3.1 SSE 11 13 6 7 1015.4 1015.3 0.0
21/10:30pm 22.9 23.6 17.1 70 3.6 S 9 11 5 6 1015.5 1015.4 0.0
21/10:00pm 23.6 24.6 17.8 70 3.6 S 9 13 5 7 1015.6 1015.5 0.0
21/09:30pm 23.7 24.8 18.1 71 3.5 SSW 9 13 5 7 1015.7 1015.6 0.0
21/09:00pm 23.4 24.4 17.8 71 3.5 SW 9 9 5 5 1015.6 1015.5 0.0
21/08:30pm 24.0 25.6 18.2 70 3.6 SW 7 11 4 6 1015.5 1015.4 0.0
21/08:00pm 24.3 25.0 18.0 68 3.9 SW 11 15 6 8 1015.0 1014.9 0.0
21/07:30pm 24.7 25.7 17.7 65 4.4 W 9 11 5 6 1014.8 1014.7 0.0
21/07:00pm 25.3 25.7 17.2 61 5.0 W 11 13 6 7 1014.4 1014.3 0.0
21/06:30pm 26.0 26.1 17.4 59 5.4 W 13 15 7 8 1014.2 1014.1 0.0
21/06:00pm 27.4 27.8 17.3 54 6.3 NNW 11 11 6 6 1013.9 1013.8 0.0
21/05:30pm 29.4 28.5 16.9 47 7.8 N 17 20 9 11 1013.5 1013.4 0.0
21/05:00pm 30.4 28.9 16.4 43 8.8 N 19 24 10 13 1013.2 1013.1 0.0
21/04:30pm 31.1 28.1 13.8 34 10.4 NNE 22 30 12 16 1012.9 1012.8 0.0
21/04:00pm 31.2 28.2 14.8 37 10.0 NNE 24 30 13 16 1012.9 1012.8 0.0
21/03:30pm 32.0 28.4 13.2 31 11.3 N 24 32 13 17 1012.8 1012.7 0.0
21/03:00pm 32.1 28.0 13.8 33 11.1 NNE 28 33 15 18 1012.8 1012.7 0.0
21/02:30pm 32.3 29.2 14.4 33 10.9 N 24 35 13 19 1012.9 1012.8 0.0
21/02:00pm 32.9 28.7 12.5 29 12.1 N 26 35 14 19 1013.1 1013.0 0.0
21/01:30pm 33.5 29.0 10.2 24 13.4 N 24 33 13 18 1013.1 1013.0 0.0
21/01:00pm 34.7 28.9 6.1 17 15.5 NNE 26 32 14 17 1013.1 1013.0 0.0
21/12:30pm 34.2 28.3 7.3 19 14.9 NNE 28 32 15 17 1013.3 1013.2 0.0
21/12:00pm 35.0 30.0 7.9 19 15.2 NE 24 32 13 17 1013.7 1013.6 0.0
21/11:30am 34.9 29.1 4.4 15 16.2 E 24 33 13 18 1014.0 1013.9 0.0
21/11:00am 33.9 27.4 4.6 16 15.5 E 28 37 15 20 1014.4 1014.3 0.0
21/10:30am 33.3 27.0 5.8 18 14.8 E 28 39 15 21 1014.6 1014.5 0.0
21/10:00am 32.2 26.1 6.4 20 13.9 E 28 39 15 21 1015.0 1014.9 0.0
21/09:30am 31.2 24.8 7.0 22 13.1 ESE 30 41 16 22 1015.1 1015.0 0.0
21/09:00am 29.7 23.2 8.2 26 11.8 ESE 32 43 17 23 1015.1 1015.0 0.0
21/08:30am 28.6 23.8 8.8 29 10.9 ESE 24 32 13 17 1015.3 1015.2 0.0
21/08:00am 26.5 24.4 11.0 38 8.8 SE 13 20 7 11 1015.4 1015.3 0.0
21/07:30am 22.9 21.9 13.4 55 5.5 SSE 11 17 6 9 1015.2 1015.1 0.0
21/07:00am 20.2 18.9 13.6 66 3.8 SSE 13 17 7 9 1015.0 1014.9 0.0
21/06:30am 19.0 18.0 13.4 70 3.2 SSE 11 15 6 8 1014.8 1014.7 0.0
21/06:00am 19.4 17.3 13.6 69 3.3 SSE 17 19 9 10 1014.7 1014.6 0.0
21/05:30am 20.1 18.5 13.8 67 3.6 SSE 15 19 8 10 1014.4 1014.3 0.0
21/05:00am 20.5 19.2 13.7 65 3.9 S 13 17 7 9 1014.2 1014.1 0.0
21/04:30am 20.8 19.1 13.7 64 4.1 S 15 20 8 11 1014.0 1013.9 0.0
21/04:00am 20.5 19.2 13.7 65 3.9 S 13 17 7 9 1013.7 1013.6 0.0
21/03:30am 20.6 19.3 13.8 65 3.9 S 13 17 7 9 1013.5 1013.4 0.0
21/03:00am 21.1 19.8 13.8 63 4.2 S 13 17 7 9 1013.3 1013.2 0.0
21/02:30am 21.5 19.9 13.9 62 4.4 SSW 15 19 8 10 1013.4 1013.3 0.0
21/02:00am 21.8 20.9 13.7 60 4.7 S 11 15 6 8 1013.2 1013.1 0.0
21/01:30am 21.9 21.5 14.0 61 4.6 SSE 9 13 5 7 1013.4 1013.3 0.0
21/01:00am 22.2 22.2 14.1 60 4.7 S 7 11 4 6 1013.3 1013.2 0.0
21/12:30am 21.9 21.0 13.8 60 4.7 SSE 11 13 6 7 1013.7 1013.6 0.0
21/12:00am 23.0 22.5 13.8 56 5.4 SE 9 13 5 7 1013.9 1013.8 0.0
 
Date/Time
WST
Temp
°C
App
Temp
°C
Dew
Point
°C
Rel
Hum
%
Delta-T
°C
Wind Press
QNH
hPa
Press
MSL
hPa
Rain since
9am
mm
Dir  Spd
km/h
Gust
km/h
Spd
kts
Gust
kts
20/11:30pm 23.7 23.1 13.6 53 5.9 SE 9 13 5 7 1014.2 1014.1 0.0
20/11:00pm 23.6 22.5 13.2 52 6.0 SSE 11 13 6 7 1014.3 1014.2 0.0

Other formats

Comma delimited format used in spreadsheet applications
http://www.bom.gov.au/fwo/IDW60801/IDW60801.94312.axf

JavaScript Object Notation format (JSON) in row-major order
http://www.bom.gov.au/fwo/IDW60801/IDW60801.94312.json

Data quality

Most of these data are generated automatically and are frequently updated. Quality checks on data are not normally performed. It is possible for incorrect values to appear. Refer to information at About Latest Weather Observations and please check the disclaimer before using these data.